KSGH/SGH METAR and TAF weather

Enter ICAO airport designator
Station Type Date Time Source
KSGH METAR 2021/04/13 07:56 UTC NOAA

KSGH 130756Z AUTO 30005KT 10SM CLR 07/06 A3003 RMK AO2 SLP174 T00670056 PNO $


Station Type Date Time Source
KSGH Decoded METAR 2021/04/13 07:56 UTC NOAA

Springfield, Springfield-Beckley Municipal Airport, OH, United States (KSGH) 39-50-25N 083-50-24W
Apr 13, 2021 - 03:56 AM EDT / 2021.04.13 0756 UTC
Wind: from the WNW (300 degrees) at 6 MPH (5 KT):0
Visibility: 10 mile(s):0
Sky conditions: clear
Temperature: 44.1 F (6.7 C)
Dew Point: 42.1 F (5.6 C)
Relative Humidity: 92%
Pressure (altimeter): 30.03 in. Hg (1016 hPa)
ob: KSGH 130756Z AUTO 30005KT 10SM CLR 07/06 A3003 RMK AO2 SLP174 T00670056 PNO
cycle: 8

Station Type Date Time Source
KSGH TAF UTC NOAA

Error!

Example: see airport list